Time;durP1;ratioP1;P1;durP2;ratioP2;P2;SDS_P1;SDS_P2;PMS_P1;PMS_P2;Temp;Humidity;BMP_temperature;BMP_pressure;BME280_temperature;BME280_humidity;BME280_pressure;Samples;Min_cycle;Max_cycle;Signal;HPM_P1;HPM_P2
2022/02/22 00:00:38;;;;;;;1.08;1.00;;;;;;;;;;5016970;28;82099;-73
2022/02/22 00:03:07;;;;;;;1.50;1.00;;;;;;;;;;4999502;28;82037;-73
2022/02/22 00:05:38;;;;;;;0.93;0.93;;;;;;;;;;5018778;28;84285;-73
2022/02/22 00:08:07;;;;;;;0.90;0.90;;;;;;;;;;5024155;28;83908;-73
2022/02/22 00:10:36;;;;;;;1.48;1.38;;;;;;;;;;5022650;28;81696;-72
2022/02/22 00:13:04;;;;;;;1.00;1.00;;;;;;;;;;5023877;28;82119;-71
2022/02/22 00:15:33;;;;;;;1.00;1.00;;;;;;;;;;5023514;28;84552;-73
2022/02/22 00:18:02;;;;;;;2.10;1.38;;;;;;;;;;5041969;28;84424;-75
2022/02/22 00:20:30;;;;;;;1.52;1.08;;;;;;;;;;5025337;28;81728;-76
2022/02/22 00:22:58;;;;;;;1.33;1.23;;;;;;;;;;5024237;28;81041;-75
2022/02/22 00:25:25;;;;;;;1.58;1.20;;;;;;;;;;5028236;28;84763;-74
2022/02/22 00:27:52;;;;;;;1.02;1.00;;;;;;;;;;5027422;28;84030;-74
2022/02/22 00:30:20;;;;;;;1.10;1.00;;;;;;;;;;5026936;28;82902;-75
2022/02/22 00:32:48;;;;;;;0.93;0.93;;;;;;;;;;5027304;28;81883;-75
2022/02/22 00:35:15;;;;;;;2.30;1.10;;;;;;;;;;5027095;28;84698;-75
2022/02/22 00:37:43;;;;;;;1.35;1.10;;;;;;;;;;5027081;28;84241;-73
2022/02/22 00:40:11;;;;;;;1.00;0.90;;;;;;;;;;5027948;28;81714;-73
2022/02/22 00:42:39;;;;;;;1.00;1.00;;;;;;;;;;5027236;28;81875;-73
2022/02/22 00:45:08;;;;;;;0.90;0.90;;;;;;;;;;5026584;28;84472;-72
2022/02/22 00:47:36;;;;;;;1.83;1.15;;;;;;;;;;5026530;28;82889;-72
2022/02/22 00:50:04;;;;;;;1.92;0.93;;;;;;;;;;5027956;28;81783;-73
2022/02/22 00:52:32;;;;;;;1.02;0.93;;;;;;;;;;5028122;28;82421;-72
2022/02/22 00:54:59;;;;;;;1.70;1.00;;;;;;;;;;5027320;28;85348;-70
2022/02/22 00:57:27;;;;;;;0.85;0.85;;;;;;;;;;5027502;28;84348;-70
2022/02/22 00:59:55;;;;;;;0.90;0.90;;;;;;;;;;5026761;28;81990;-70
2022/02/22 01:02:23;;;;;;;2.15;0.95;;;;;;;;;;5026756;28;81907;-71
2022/02/22 01:04:50;;;;;;;2.53;1.10;;;;;;;;;;5027758;28;83687;-71
2022/02/22 01:07:20;;;;;;;2.08;1.00;;;;;;;;;;5026166;28;84145;-70
2022/02/22 01:09:48;;;;;;;1.15;0.93;;;;;;;;;;5028284;28;82665;-70
2022/02/22 01:12:17;;;;;;;0.90;0.90;;;;;;;;;;5026489;28;81107;-70
2022/02/22 01:14:46;;;;;;;0.93;0.93;;;;;;;;;;5027558;28;84758;-70
2022/02/22 01:17:14;;;;;;;2.35;1.00;;;;;;;;;;5026707;28;84262;-70
2022/02/22 01:19:42;;;;;;;1.23;1.13;;;;;;;;;;5025832;28;82745;-70
2022/02/22 01:22:10;;;;;;;2.83;1.23;;;;;;;;;;5027171;28;81794;-70
2022/02/22 01:24:37;;;;;;;0.80;0.80;;;;;;;;;;5027757;28;82467;-70
2022/02/22 01:27:04;;;;;;;1.25;1.15;;;;;;;;;;5026497;28;83465;-70
2022/02/22 01:29:32;;;;;;;1.13;0.90;;;;;;;;;;5026330;28;82249;-70
2022/02/22 01:32:00;;;;;;;0.90;0.90;;;;;;;;;;5027397;28;81813;-70
2022/02/22 01:34:28;;;;;;;0.90;0.90;;;;;;;;;;5025717;28;84949;-70
2022/02/22 01:36:56;;;;;;;1.02;1.00;;;;;;;;;;5027657;28;83843;-70
2022/02/22 01:39:23;;;;;;;1.13;1.05;;;;;;;;;;5025563;28;82946;-71
2022/02/22 01:41:51;;;;;;;1.20;1.10;;;;;;;;;;5026058;28;81901;-70
2022/02/22 01:44:21;;;;;;;0.93;0.93;;;;;;;;;;5025042;28;85083;-71
2022/02/22 01:47:04;;;;;;;0.88;0.88;;;;;;;;;;5026617;28;85045;-71
2022/02/22 01:49:32;;;;;;;1.77;1.45;;;;;;;;;;5026814;28;81909;-71
2022/02/22 01:52:02;;;;;;;0.75;0.75;;;;;;;;;;5027620;28;81854;-70
2022/02/22 01:54:32;;;;;;;1.50;1.02;;;;;;;;;;5027109;28;83985;-70
2022/02/22 01:56:59;;;;;;;1.17;1.10;;;;;;;;;;5026779;28;84161;-69
2022/02/22 01:59:27;;;;;;;0.98;0.98;;;;;;;;;;5026948;28;82314;-71
2022/02/22 02:01:54;;;;;;;0.90;0.90;;;;;;;;;;5026833;28;81025;-71
2022/02/22 02:04:25;;;;;;;0.98;0.98;;;;;;;;;;5025636;28;83704;-71
2022/02/22 02:06:52;;;;;;;3.22;1.02;;;;;;;;;;5026277;28;83832;-71
2022/02/22 02:09:20;;;;;;;1.00;1.00;;;;;;;;;;5025182;28;82654;-71
2022/02/22 02:11:50;;;;;;;0.90;0.90;;;;;;;;;;5025380;28;81965;-71
2022/02/22 02:14:18;;;;;;;1.23;1.20;;;;;;;;;;5027088;28;84173;-70
2022/02/22 02:16:46;;;;;;;1.20;1.10;;;;;;;;;;5026376;28;82795;-70
2022/02/22 02:19:16;;;;;;;1.00;1.00;;;;;;;;;;5025894;28;81712;-70
2022/02/22 02:21:44;;;;;;;0.90;0.90;;;;;;;;;;5025554;28;81954;-70
2022/02/22 02:24:24;;;;;;;1.55;1.45;;;;;;;;;;5026683;28;84554;-70
2022/02/22 02:26:53;;;;;;;1.02;1.02;;;;;;;;;;5026677;28;83958;-70
2022/02/22 02:29:22;;;;;;;1.10;1.10;;;;;;;;;;5026607;28;81967;-71
2022/02/22 02:31:51;;;;;;;1.10;1.10;;;;;;;;;;5026593;28;81975;-71
2022/02/22 02:34:27;;;;;;;2.15;1.95;;;;;;;;;;5024660;28;83796;-71
2022/02/22 02:36:55;;;;;;;0.93;0.93;;;;;;;;;;5026538;28;83092;-71
2022/02/22 02:39:23;;;;;;;1.20;1.10;;;;;;;;;;5026046;28;82884;-71
2022/02/22 02:41:50;;;;;;;0.95;0.95;;;;;;;;;;5026384;28;81881;-71
2022/02/22 02:44:20;;;;;;;1.38;1.10;;;;;;;;;;5026086;28;84441;-71
2022/02/22 02:46:48;;;;;;;0.90;0.90;;;;;;;;;;5025884;28;84179;-71
2022/02/22 02:49:18;;;;;;;1.20;1.10;;;;;;;;;;5025609;28;82220;-71
2022/02/22 02:51:46;;;;;;;1.33;1.25;;;;;;;;;;5026766;28;81189;-71
2022/02/22 02:54:14;;;;;;;1.00;1.00;;;;;;;;;;5024745;28;83122;-71
2022/02/22 02:56:41;;;;;;;3.08;1.20;;;;;;;;;;5026735;28;82815;-71
2022/02/22 02:59:10;;;;;;;1.30;1.23;;;;;;;;;;5026144;28;82528;-71
2022/02/22 03:01:38;;;;;;;1.45;1.00;;;;;;;;;;5025034;28;81630;-71
2022/02/22 03:04:05;;;;;;;1.17;1.08;;;;;;;;;;5025027;28;84429;-71
2022/02/22 03:06:34;;;;;;;1.00;1.00;;;;;;;;;;5024086;28;83619;-72
2022/02/22 03:09:01;;;;;;;1.00;1.00;;;;;;;;;;5026020;28;81715;-72
2022/02/22 03:11:30;;;;;;;1.00;1.00;;;;;;;;;;5024649;28;82466;-71
2022/02/22 03:13:58;;;;;;;1.50;1.00;;;;;;;;;;5024933;28;84681;-72
2022/02/22 03:16:26;;;;;;;1.20;1.10;;;;;;;;;;5025698;28;82806;-72
2022/02/22 03:18:54;;;;;;;0.90;0.90;;;;;;;;;;5024607;28;82623;-71
2022/02/22 03:21:22;;;;;;;1.00;1.00;;;;;;;;;;5025787;28;82040;-71
2022/02/22 03:23:49;;;;;;;1.00;1.00;;;;;;;;;;5024313;28;85438;-72
2022/02/22 03:26:17;;;;;;;0.80;0.80;;;;;;;;;;5024533;28;85122;-72
2022/02/22 03:28:43;;;;;;;0.98;0.98;;;;;;;;;;5024828;28;81954;-71
2022/02/22 03:31:11;;;;;;;1.42;0.93;;;;;;;;;;5024728;28;81782;-72
2022/02/22 03:33:40;;;;;;;1.20;1.10;;;;;;;;;;5025377;28;85453;-73
2022/02/22 03:36:07;;;;;;;1.15;1.05;;;;;;;;;;5025857;28;82861;-71
2022/02/22 03:38:37;;;;;;;1.10;1.10;;;;;;;;;;5025178;28;82078;-70
2022/02/22 03:41:04;;;;;;;1.00;1.00;;;;;;;;;;5025958;28;81174;-71
2022/02/22 03:43:33;;;;;;;1.10;1.00;;;;;;;;;;5024088;28;84011;-71
2022/02/22 03:45:59;;;;;;;0.80;0.80;;;;;;;;;;5025469;28;83644;-71
2022/02/22 03:48:28;;;;;;;1.42;1.33;;;;;;;;;;5026833;28;82944;-71
2022/02/22 03:50:55;;;;;;;0.80;0.80;;;;;;;;;;5029226;28;81778;-71
2022/02/22 03:53:22;;;;;;;0.90;0.90;;;;;;;;;;5028731;28;84163;-71
2022/02/22 03:55:50;;;;;;;0.95;0.95;;;;;;;;;;5028802;28;82890;-71
2022/02/22 03:58:17;;;;;;;1.00;1.00;;;;;;;;;;5028979;28;81758;-72
2022/02/22 04:00:44;;;;;;;0.90;0.90;;;;;;;;;;5027850;28;81778;-72
2022/02/22 04:03:12;;;;;;;1.00;1.00;;;;;;;;;;5027510;28;84502;-72
2022/02/22 04:05:42;;;;;;;0.90;0.90;;;;;;;;;;5028375;28;84176;-72
2022/02/22 04:08:09;;;;;;;0.90;0.90;;;;;;;;;;5027710;28;82402;-72
2022/02/22 04:10:37;;;;;;;0.90;0.90;;;;;;;;;;5027504;28;81881;-72
2022/02/22 04:13:04;;;;;;;1.88;0.90;;;;;;;;;;5027129;28;84585;-72
2022/02/22 04:15:31;;;;;;;1.00;1.00;;;;;;;;;;5026714;28;85141;-72
2022/02/22 04:17:59;;;;;;;1.48;1.42;;;;;;;;;;5028270;28;82279;-72
2022/02/22 04:20:26;;;;;;;1.00;1.00;;;;;;;;;;5027357;28;81905;-72
2022/02/22 04:22:54;;;;;;;0.88;0.88;;;;;;;;;;5027541;28;84437;-71
2022/02/22 04:25:22;;;;;;;0.90;0.90;;;;;;;;;;5028787;28;82211;-72
2022/02/22 04:27:51;;;;;;;2.45;1.00;;;;;;;;;;5027051;28;82301;-72
2022/02/22 04:30:18;;;;;;;3.25;1.00;;;;;;;;;;5029071;28;80761;-72
2022/02/22 04:32:46;;;;;;;1.00;1.00;;;;;;;;;;5026685;28;83067;-71
2022/02/22 04:35:13;;;;;;;1.00;0.98;;;;;;;;;;5028095;28;84060;-71
2022/02/22 04:37:40;;;;;;;0.90;0.90;;;;;;;;;;5025160;28;82724;-71
2022/02/22 04:40:08;;;;;;;1.98;1.10;;;;;;;;;;5023537;28;81645;-71
2022/02/22 04:42:36;;;;;;;0.90;0.90;;;;;;;;;;5026695;28;84481;-70
2022/02/22 04:45:05;;;;;;;1.08;1.05;;;;;;;;;;5028080;28;84054;-70
2022/02/22 04:47:33;;;;;;;3.35;1.20;;;;;;;;;;5027287;28;81678;-70
2022/02/22 04:50:05;;;;;;;0.90;0.90;;;;;;;;;;5028231;28;81821;-70
2022/02/22 04:52:32;;;;;;;3.17;1.00;;;;;;;;;;5027790;28;83285;-70
2022/02/22 04:54:59;;;;;;;1.17;1.00;;;;;;;;;;5028277;28;83787;-70
2022/02/22 04:57:26;;;;;;;1.13;0.90;;;;;;;;;;5043010;28;81752;-70
2022/02/22 04:59:54;;;;;;;0.98;0.90;;;;;;;;;;5026885;28;81839;-70
2022/02/22 05:02:22;;;;;;;0.90;0.90;;;;;;;;;;5026046;28;85106;-70
2022/02/22 05:04:49;;;;;;;0.90;0.90;;;;;;;;;;5027622;28;83873;-70
2022/02/22 05:07:16;;;;;;;1.55;1.00;;;;;;;;;;5026603;28;82186;-70
2022/02/22 05:09:44;;;;;;;1.23;1.13;;;;;;;;;;5026551;28;81855;-70
2022/02/22 05:12:13;;;;;;;1.00;1.00;;;;;;;;;;5026585;28;84174;-70
2022/02/22 05:14:40;;;;;;;1.15;1.15;;;;;;;;;;5027280;28;84148;-70
2022/02/22 05:17:07;;;;;;;0.95;0.90;;;;;;;;;;5026056;28;82626;-70
2022/02/22 05:19:34;;;;;;;1.00;1.00;;;;;;;;;;5027315;28;81177;-70
2022/02/22 05:22:05;;;;;;;1.20;1.10;;;;;;;;;;5026540;28;84086;-70
2022/02/22 05:24:32;;;;;;;1.02;1.02;;;;;;;;;;5026217;28;84004;-70
2022/02/22 05:27:00;;;;;;;0.95;0.95;;;;;;;;;;5025932;28;82690;-70
2022/02/22 05:29:26;;;;;;;0.90;0.90;;;;;;;;;;5027699;28;81712;-70
2022/02/22 05:31:54;;;;;;;1.15;1.00;;;;;;;;;;5027014;28;83181;-70
2022/02/22 05:34:21;;;;;;;3.17;1.00;;;;;;;;;;5026261;28;83613;-70
2022/02/22 05:36:50;;;;;;;1.00;1.00;;;;;;;;;;5026142;28;81973;-70
2022/02/22 05:39:18;;;;;;;1.00;1.00;;;;;;;;;;5026159;28;81949;-70
2022/02/22 05:41:46;;;;;;;0.90;0.90;;;;;;;;;;5026940;28;84763;-70
2022/02/22 05:44:13;;;;;;;0.98;0.98;;;;;;;;;;5006468;28;84456;-70
2022/02/22 05:46:41;;;;;;;1.10;1.10;;;;;;;;;;5005144;28;81904;-71
2022/02/22 05:49:12;;;;;;;1.02;1.00;;;;;;;;;;5007567;28;81823;-72
2022/02/22 05:51:39;;;;;;;1.70;1.02;;;;;;;;;;5018338;28;84353;-72
2022/02/22 05:54:07;;;;;;;2.67;1.05;;;;;;;;;;5027229;28;84926;-72
2022/02/22 05:56:34;;;;;;;0.98;0.98;;;;;;;;;;5027295;28;81797;-73
2022/02/22 05:59:03;;;;;;;1.63;1.52;;;;;;;;;;5028614;28;83654;-72
2022/02/22 06:01:33;;;;;;;1.60;1.50;;;;;;;;;;5024017;28;84106;-73
2022/02/22 06:04:01;;;;;;;1.38;1.27;;;;;;;;;;5023689;28;84264;-72
2022/02/22 06:06:30;;;;;;;1.50;1.02;;;;;;;;;;5022447;28;82442;-72
2022/02/22 06:08:57;;;;;;;1.20;1.10;;;;;;;;;;5019085;28;81120;-71
2022/02/22 06:11:24;;;;;;;7.40;1.20;;;;;;;;;;5021541;28;82648;-71
2022/02/22 06:13:52;;;;;;;1.05;1.00;;;;;;;;;;5025131;28;84063;-71
2022/02/22 06:16:19;;;;;;;3.00;1.10;;;;;;;;;;5024966;28;82886;-72
2022/02/22 06:18:47;;;;;;;1.17;1.10;;;;;;;;;;5028397;28;81806;-73
2022/02/22 06:21:14;;;;;;;1.17;1.17;;;;;;;;;;5025661;28;84280;-75
2022/02/22 06:23:42;;;;;;;2.35;1.08;;;;;;;;;;5025073;28;84263;-73
2022/02/22 06:26:10;;;;;;;1.10;1.10;;;;;;;;;;5025011;28;82742;-73
2022/02/22 06:28:37;;;;;;;1.20;1.20;;;;;;;;;;5026666;28;81855;-71
2022/02/22 06:31:06;;;;;;;1.15;1.00;;;;;;;;;;5025593;28;83099;-71
2022/02/22 06:33:34;;;;;;;1.23;1.13;;;;;;;;;;5027088;28;83110;-73
2022/02/22 06:36:02;;;;;;;1.73;1.52;;;;;;;;;;5025991;28;81731;-73
2022/02/22 06:38:29;;;;;;;1.00;1.00;;;;;;;;;;5026685;28;82186;-74
2022/02/22 06:40:58;;;;;;;1.00;1.00;;;;;;;;;;5024992;28;84940;-75
2022/02/22 06:43:26;;;;;;;1.27;1.17;;;;;;;;;;5027455;28;84298;-77
2022/02/22 06:45:54;;;;;;;1.10;1.10;;;;;;;;;;5025548;28;83145;-73
2022/02/22 06:48:21;;;;;;;1.00;1.00;;;;;;;;;;5025767;28;81936;-75
2022/02/22 06:50:49;;;;;;;1.00;1.00;;;;;;;;;;5024914;28;83714;-74
2022/02/22 06:53:16;;;;;;;1.02;1.02;;;;;;;;;;5026193;28;84315;-73
2022/02/22 06:55:44;;;;;;;2.55;1.00;;;;;;;;;;5026444;28;81847;-73
2022/02/22 06:58:11;;;;;;;3.13;1.30;;;;;;;;;;5024754;28;81395;-74
2022/02/22 07:00:43;;;;;;;2.15;1.30;;;;;;;;;;5026304;28;82215;-73
2022/02/22 07:03:11;;;;;;;0.90;0.90;;;;;;;;;;5023587;28;83751;-73
2022/02/22 07:05:39;;;;;;;2.08;1.13;;;;;;;;;;5023962;28;82669;-74
2022/02/22 07:08:07;;;;;;;1.92;1.15;;;;;;;;;;5024401;28;81935;-73
2022/02/22 07:10:35;;;;;;;0.95;0.95;;;;;;;;;;5024859;28;83574;-73
2022/02/22 07:13:02;;;;;;;0.90;0.90;;;;;;;;;;5025313;28;83874;-75
2022/02/22 07:15:30;;;;;;;1.15;1.05;;;;;;;;;;5024634;28;82110;-73
2022/02/22 07:17:58;;;;;;;0.90;0.90;;;;;;;;;;5023766;28;81860;-73
2022/02/22 07:20:26;;;;;;;0.95;0.90;;;;;;;;;;5025550;28;84446;-73
2022/02/22 07:22:55;;;;;;;3.20;1.00;;;;;;;;;;5028102;28;82843;-72
2022/02/22 07:25:24;;;;;;;1.85;1.42;;;;;;;;;;5028507;28;82172;-73
2022/02/22 07:27:51;;;;;;;1.30;1.17;;;;;;;;;;5028704;28;81899;-73
2022/02/22 07:30:20;;;;;;;1.63;1.10;;;;;;;;;;5027641;28;85485;-73
2022/02/22 07:32:50;;;;;;;2.47;1.20;;;;;;;;;;5027470;28;85099;-73
2022/02/22 07:35:17;;;;;;;1.08;1.08;;;;;;;;;;5027576;28;82228;-73
2022/02/22 07:37:45;;;;;;;5.50;1.00;;;;;;;;;;5029678;28;81828;-73
2022/02/22 07:40:15;;;;;;;0.85;0.85;;;;;;;;;;5027468;28;84168;-73
2022/02/22 07:42:44;;;;;;;1.40;1.00;;;;;;;;;;5028923;28;84009;-73
2022/02/22 07:45:12;;;;;;;1.83;1.00;;;;;;;;;;5028015;28;82106;-73
2022/02/22 07:47:39;;;;;;;1.15;1.00;;;;;;;;;;5028420;28;81181;-73
2022/02/22 07:50:08;;;;;;;0.75;0.75;;;;;;;;;;5029053;28;84552;-73
2022/02/22 07:52:35;;;;;;;1.75;0.88;;;;;;;;;;5027327;28;84053;-73
2022/02/22 07:55:05;;;;;;;0.80;0.80;;;;;;;;;;5028608;28;82701;-73
2022/02/22 07:57:38;;;;;;;0.60;0.60;;;;;;;;;;5019562;28;82365;-74
2022/02/22 08:00:07;;;;;;;17.45;2.42;;;;;;;;;;5028855;28;84432;-73
2022/02/22 08:02:35;;;;;;;4.05;0.90;;;;;;;;;;5027076;28;82787;-71
2022/02/22 08:05:03;;;;;;;2.15;0.90;;;;;;;;;;5028832;28;82336;-74
2022/02/22 08:07:34;;;;;;;0.68;0.68;;;;;;;;;;5027385;28;81921;-74
2022/02/22 08:10:07;;;;;;;0.77;0.70;;;;;;;;;;5026161;28;88234;-73
2022/02/22 08:12:35;;;;;;;1.13;0.90;;;;;;;;;;5026233;28;89404;-74
2022/02/22 08:15:06;;;;;;;2.50;0.68;;;;;;;;;;5025905;28;86853;-73
2022/02/22 08:17:41;;;;;;;1.13;0.70;;;;;;;;;;5026031;28;87022;-73
2022/02/22 08:20:10;;;;;;;2.70;1.13;;;;;;;;;;5025268;28;90136;-73
2022/02/22 08:22:38;;;;;;;11.13;1.45;;;;;;;;;;5024785;28;89495;-73
2022/02/22 08:25:06;;;;;;;1.60;0.80;;;;;;;;;;5024349;28;87290;-73
2022/02/22 08:27:35;;;;;;;0.65;0.60;;;;;;;;;;5026166;28;87021;-73
2022/02/22 08:30:03;;;;;;;1.90;0.80;;;;;;;;;;5025423;28;88727;-73
2022/02/22 08:32:30;;;;;;;0.60;0.60;;;;;;;;;;5024636;28;88890;-74
2022/02/22 08:34:58;;;;;;;2.88;0.82;;;;;;;;;;5024395;28;86826;-73
2022/02/22 08:37:25;;;;;;;6.32;1.50;;;;;;;;;;5025075;28;86112;-73
2022/02/22 08:39:53;;;;;;;1.63;0.90;;;;;;;;;;5024341;28;89177;-74
2022/02/22 08:42:21;;;;;;;1.95;1.02;;;;;;;;;;5024426;28;89037;-73
2022/02/22 08:45:08;;;;;;;3.28;0.88;;;;;;;;;;5025103;28;87901;-74
2022/02/22 08:47:36;;;;;;;2.05;0.90;;;;;;;;;;5023409;28;86901;-74
2022/02/22 08:50:04;;;;;;;33.70;2.35;;;;;;;;;;5024473;28;89225;-74
2022/02/22 08:52:32;;;;;;;2.05;0.68;;;;;;;;;;5023568;28;89633;-74
2022/02/22 08:55:00;;;;;;;5.80;1.45;;;;;;;;;;5025493;28;86890;-75
2022/02/22 08:57:28;;;;;;;5.35;1.00;;;;;;;;;;5025145;28;86930;-74
2022/02/22 08:59:55;;;;;;;4.43;0.80;;;;;;;;;;5023578;28;89204;-73
2022/02/22 09:02:29;;;;;;;4.57;0.93;;;;;;;;;;5024359;28;86278;-73
2022/02/22 09:04:56;;;;;;;4.68;0.73;;;;;;;;;;5024384;28;86842;-76
2022/02/22 09:07:24;;;;;;;4.53;0.88;;;;;;;;;;5024210;28;86968;-75
2022/02/22 09:09:52;;;;;;;0.75;0.75;;;;;;;;;;5025131;28;89982;-76
2022/02/22 09:12:19;;;;;;;5.57;0.80;;;;;;;;;;5023923;28;90031;-77
2022/02/22 09:14:47;;;;;;;1.95;0.70;;;;;;;;;;5024026;28;87247;-78
2022/02/22 09:17:14;;;;;;;2.10;1.15;;;;;;;;;;5024267;28;86995;-77
2022/02/22 09:19:42;;;;;;;1.23;1.05;;;;;;;;;;5024496;28;89221;-77
2022/02/22 09:22:11;;;;;;;2.50;0.95;;;;;;;;;;5024959;28;88718;-77
2022/02/22 09:24:39;;;;;;;1.15;0.68;;;;;;;;;;5023753;28;86937;-77
2022/02/22 09:27:07;;;;;;;2.95;0.85;;;;;;;;;;5025716;28;86112;-77
2022/02/22 09:29:39;;;;;;;5.45;0.80;;;;;;;;;;5025172;28;89084;-78
2022/02/22 09:32:10;;;;;;;5.40;0.90;;;;;;;;;;5024055;28;88970;-77
2022/02/22 09:34:37;;;;;;;1.23;0.80;;;;;;;;;;5023946;28;88139;-73
2022/02/22 09:37:06;;;;;;;8.32;1.00;;;;;;;;;;5023938;28;86901;-74
2022/02/22 09:39:34;;;;;;;3.65;1.10;;;;;;;;;;5024489;28;89196;-73
2022/02/22 09:42:03;;;;;;;0.75;0.73;;;;;;;;;;5024365;28;89476;-75
2022/02/22 09:44:31;;;;;;;1.25;1.02;;;;;;;;;;5024174;28;87013;-76
2022/02/22 09:46:59;;;;;;;2.67;0.82;;;;;;;;;;5023165;28;86944;-77
2022/02/22 09:49:27;;;;;;;2.17;0.80;;;;;;;;;;5023061;28;89502;-75
2022/02/22 09:51:55;;;;;;;9.63;1.05;;;;;;;;;;5024344;28;88612;-75
2022/02/22 09:54:23;;;;;;;1.42;0.75;;;;;;;;;;5024596;28;87524;-76
2022/02/22 09:56:51;;;;;;;2.65;0.90;;;;;;;;;;5024262;28;86979;-75
2022/02/22 09:59:21;;;;;;;0.93;0.60;;;;;;;;;;5023709;28;89016;-75
2022/02/22 10:01:52;;;;;;;2.67;1.15;;;;;;;;;;5023846;28;89840;-76
2022/02/22 10:04:20;;;;;;;0.60;0.60;;;;;;;;;;5024782;28;86833;-76
2022/02/22 10:06:50;;;;;;;0.98;0.80;;;;;;;;;;5024475;28;86814;-76
2022/02/22 10:09:19;;;;;;;0.50;0.50;;;;;;;;;;5024307;28;88140;-75
2022/02/22 10:11:52;;;;;;;2.90;1.20;;;;;;;;;;5024109;28;88008;-75
2022/02/22 10:14:29;;;;;;;2.70;0.65;;;;;;;;;;5024358;28;86793;-75
2022/02/22 10:16:59;;;;;;;0.93;0.93;;;;;;;;;;5024397;28;85988;-75
2022/02/22 10:19:27;;;;;;;1.17;0.60;;;;;;;;;;5023561;28;88937;-75
2022/02/22 10:21:56;;;;;;;2.47;0.80;;;;;;;;;;5024085;28;87887;-75
2022/02/22 10:24:28;;;;;;;3.05;0.60;;;;;;;;;;5023150;28;87773;-75
2022/02/22 10:27:06;;;;;;;4.18;0.65;;;;;;;;;;5024377;28;86794;-75
2022/02/22 10:29:35;;;;;;;0.60;0.60;;;;;;;;;;5023616;28;89396;-75
2022/02/22 10:32:16;;;;;;;6.60;1.05;;;;;;;;;;5023819;28;87948;-75
2022/02/22 10:34:44;;;;;;;2.25;0.88;;;;;;;;;;5023009;28;86846;-75
2022/02/22 10:37:12;;;;;;;0.93;0.80;;;;;;;;;;5023088;28;86965;-75
2022/02/22 10:39:40;;;;;;;2.28;0.82;;;;;;;;;;5021726;28;89520;-75
2022/02/22 10:42:08;;;;;;;2.97;0.95;;;;;;;;;;5023128;28;88236;-75
2022/02/22 10:44:36;;;;;;;3.17;0.60;;;;;;;;;;5022821;28;86679;-75
2022/02/22 10:47:25;;;;;;;5.10;0.70;;;;;;;;;;5023103;28;87177;-75
2022/02/22 10:49:52;;;;;;;0.52;0.50;;;;;;;;;;5023283;28;88879;-75
2022/02/22 10:52:29;;;;;;;3.03;0.95;;;;;;;;;;5022321;28;89629;-75
2022/02/22 10:55:17;;;;;;;2.25;0.80;;;;;;;;;;5022223;28;86812;-75
2022/02/22 10:57:46;;;;;;;0.65;0.65;;;;;;;;;;5023384;28;86977;-75
2022/02/22 11:00:14;;;;;;;1.48;0.75;;;;;;;;;;5023586;28;88127;-75
2022/02/22 11:02:45;;;;;;;0.88;0.50;;;;;;;;;;5021792;28;89217;-75
2022/02/22 11:05:35;;;;;;;1.50;0.40;;;;;;;;;;5022471;28;86904;-75
2022/02/22 11:08:03;;;;;;;3.17;0.80;;;;;;;;;;5022383;28;86223;-75
2022/02/22 11:10:33;;;;;;;2.83;0.55;;;;;;;;;;5022433;28;89006;-75
2022/02/22 11:13:02;;;;;;;6.20;0.63;;;;;;;;;;5023199;28;89384;-75
2022/02/22 11:15:37;;;;;;;0.88;0.63;;;;;;;;;;5022893;28;87657;-74
2022/02/22 11:18:22;;;;;;;0.65;0.65;;;;;;;;;;5022521;28;88158;-76
2022/02/22 11:20:50;;;;;;;7.60;0.60;;;;;;;;;;5022000;28;89473;-76
2022/02/22 11:23:28;;;;;;;1.83;0.98;;;;;;;;;;5022620;28;89274;-74
2022/02/22 11:26:12;;;;;;;0.70;0.70;;;;;;;;;;5023692;28;86640;-74
2022/02/22 11:28:52;;;;;;;1.02;0.50;;;;;;;;;;5023362;28;86802;-74
2022/02/22 11:31:21;;;;;;;0.85;0.47;;;;;;;;;;5023059;28;88116;-75
2022/02/22 11:33:53;;;;;;;5.15;0.50;;;;;;;;;;5023453;28;87908;-75
2022/02/22 11:36:27;;;;;;;0.40;0.40;;;;;;;;;;5023528;28;86777;-75
2022/02/22 11:38:54;;;;;;;0.45;0.45;;;;;;;;;;5023054;28;86786;-75
2022/02/22 11:41:39;;;;;;;0.77;0.60;;;;;;;;;;5022107;28;89017;-74
2022/02/22 11:44:17;;;;;;;0.40;0.40;;;;;;;;;;5021686;28;89903;-75
2022/02/22 11:46:47;;;;;;;2.03;1.02;;;;;;;;;;5022555;28;86960;-75
2022/02/22 11:49:32;;;;;;;0.52;0.50;;;;;;;;;;5023459;28;86832;-75
2022/02/22 11:52:12;;;;;;;1.75;0.63;;;;;;;;;;5021857;28;89732;-75
2022/02/22 11:54:45;;;;;;;0.57;0.50;;;;;;;;;;5021862;28;89409;-75
2022/02/22 11:57:17;;;;;;;0.57;0.50;;;;;;;;;;5021641;28;86866;-75
2022/02/22 11:59:52;;;;;;;1.13;0.80;;;;;;;;;;5023446;28;86087;-75
2022/02/22 12:02:34;;;;;;;2.05;0.40;;;;;;;;;;5022346;28;89637;-75
2022/02/22 12:05:22;;;;;;;1.85;0.80;;;;;;;;;;5022771;28;88988;-75
2022/02/22 12:08:00;;;;;;;0.55;0.50;;;;;;;;;;5024071;28;87780;-77
2022/02/22 12:10:31;;;;;;;0.43;0.40;;;;;;;;;;5026926;28;86920;-78
2022/02/22 12:13:09;;;;;;;1.95;0.65;;;;;;;;;;5025066;28;89621;-78
2022/02/22 12:15:39;;;;;;;3.00;0.55;;;;;;;;;;5026207;28;89754;-79
2022/02/22 12:18:17;;;;;;;4.22;0.70;;;;;;;;;;5024713;28;86819;-78
2022/02/22 12:20:48;;;;;;;0.43;0.40;;;;;;;;;;5025826;28;86830;-79
2022/02/22 12:23:22;;;;;;;0.40;0.40;;;;;;;;;;5026322;28;89178;-78
2022/02/22 12:25:51;;;;;;;;;;;;;;;;;;5027394;28;89256;-78
2022/02/22 12:28:21;;;;;;;3.03;0.90;;;;;;;;;;5026997;28;86781;-79
2022/02/22 12:30:50;;;;;;;1.17;0.60;;;;;;;;;;5025077;28;86818;-79
2022/02/22 12:33:18;;;;;;;0.50;0.50;;;;;;;;;;5024954;28;89649;-79
2022/02/22 12:35:46;;;;;;;0.75;0.50;;;;;;;;;;5025047;28;90630;-79
2022/02/22 12:38:28;;;;;;;1.48;0.60;;;;;;;;;;5025822;28;86779;-79
2022/02/22 12:40:57;;;;;;;1.55;0.70;;;;;;;;;;5026315;28;86865;-78
2022/02/22 12:43:50;;;;;;;0.50;0.50;;;;;;;;;;5025304;28;89156;-78
2022/02/22 12:46:21;;;;;;;7.47;0.52;;;;;;;;;;5024613;28;87924;-78
2022/02/22 12:48:52;;;;;;;0.60;0.60;;;;;;;;;;5024522;28;86875;-79
2022/02/22 12:51:27;;;;;;;0.75;0.52;;;;;;;;;;5025653;28;85952;-79
2022/02/22 12:54:14;;;;;;;0.73;0.73;;;;;;;;;;5024874;28;90092;-79
2022/02/22 12:57:04;;;;;;;0.60;0.60;;;;;;;;;;5026108;28;89327;-79
2022/02/22 12:59:37;;;;;;;0.82;0.80;;;;;;;;;;5025204;28;87780;-79
2022/02/22 13:02:08;;;;;;;0.70;0.70;;;;;;;;;;5024311;28;87010;-78
2022/02/22 13:04:40;;;;;;;2.13;1.00;;;;;;;;;;5025778;28;89403;-79
2022/02/22 13:07:13;;;;;;;0.73;0.70;;;;;;;;;;5024551;28;87998;-79
2022/02/22 13:09:44;;;;;;;3.45;0.77;;;;;;;;;;5024937;28;86655;-79
2022/02/22 13:12:20;;;;;;;1.42;1.30;;;;;;;;;;5025231;28;86875;-79
2022/02/22 13:14:49;;;;;;;1.38;1.00;;;;;;;;;;5025284;28;89416;-79
2022/02/22 13:17:17;;;;;;;1.48;0.95;;;;;;;;;;5025403;28;89103;-79
2022/02/22 13:20:01;;;;;;;0.85;0.60;;;;;;;;;;5024924;28;86791;-79
2022/02/22 13:22:40;;;;;;;0.68;0.60;;;;;;;;;;5026718;28;87517;-77
2022/02/22 13:25:17;;;;;;;0.95;0.95;;;;;;;;;;5025362;28;90967;-80
2022/02/22 13:27:46;;;;;;;0.80;0.80;;;;;;;;;;5025053;28;90307;-79
2022/02/22 13:30:33;;;;;;;3.22;0.70;;;;;;;;;;5026080;28;86807;-81
2022/02/22 13:33:03;;;;;;;;;;;;;;;;;;5024752;28;86867;-80
2022/02/22 13:35:31;;;;;;;1.15;0.98;;;;;;;;;;5026662;28;88893;-80
2022/02/22 13:38:19;;;;;;;0.70;0.70;;;;;;;;;;5025051;28;89799;-80
2022/02/22 13:40:47;;;;;;;2.10;0.65;;;;;;;;;;5024166;28;86794;-81
2022/02/22 13:43:15;;;;;;;3.63;0.80;;;;;;;;;;5024012;28;86232;-80
2022/02/22 13:45:43;;;;;;;2.33;0.70;;;;;;;;;;5025767;28;89482;-79
2022/02/22 13:48:13;;;;;;;3.80;0.75;;;;;;;;;;5024266;28;88965;-80
2022/02/22 13:50:41;;;;;;;2.63;0.80;;;;;;;;;;5004441;28;87745;-81
2022/02/22 13:53:36;;;;;;;0.57;0.57;;;;;;;;;;5010518;28;86930;-80
2022/02/22 13:56:08;;;;;;;2.40;0.60;;;;;;;;;;5023773;28;89399;-79
2022/02/22 13:58:36;;;;;;;0.50;0.50;;;;;;;;;;5024731;28;87942;-79
2022/02/22 14:01:11;;;;;;;0.60;0.60;;;;;;;;;;5025323;28;86644;-80
2022/02/22 14:03:38;;;;;;;3.40;0.70;;;;;;;;;;5024550;28;86720;-80
2022/02/22 14:06:07;;;;;;;4.82;0.80;;;;;;;;;;5023724;28;88876;-79
2022/02/22 14:08:34;;;;;;;5.70;1.13;;;;;;;;;;5025435;28;89123;-79
2022/02/22 14:11:02;;;;;;;6.80;0.88;;;;;;;;;;5024416;28;86936;-80
2022/02/22 14:13:35;;;;;;;1.02;0.65;;;;;;;;;;5025018;28;86921;-80
2022/02/22 14:16:22;;;;;;;0.93;0.85;;;;;;;;;;5021979;28;90203;-80
2022/02/22 14:18:49;;;;;;;0.50;0.50;;;;;;;;;;5024104;28;90225;-79
2022/02/22 14:21:18;;;;;;;2.20;0.77;;;;;;;;;;5006506;28;86752;-80
2022/02/22 14:23:45;;;;;;;1.00;0.95;;;;;;;;;;5006981;28;86874;-80
2022/02/22 14:26:13;;;;;;;1.02;0.60;;;;;;;;;;5006413;28;91749;-80
2022/02/22 14:28:40;;;;;;;0.80;0.80;;;;;;;;;;5024717;28;89906;-80
2022/02/22 14:31:08;;;;;;;7.63;1.25;;;;;;;;;;5007069;28;86812;-80
2022/02/22 14:33:34;;;;;;;0.73;0.70;;;;;;;;;;5025901;28;86187;-79
2022/02/22 14:36:03;;;;;;;4.03;0.70;;;;;;;;;;5025146;28;89096;-80
2022/02/22 14:38:32;;;;;;;0.50;0.50;;;;;;;;;;5023207;28;89858;-80
2022/02/22 14:41:00;;;;;;;0.88;0.60;;;;;;;;;;5022657;28;87979;-80
2022/02/22 14:43:27;;;;;;;39.03;3.92;;;;;;;;;;5023183;28;86982;-80
2022/02/22 14:45:58;;;;;;;1.67;0.70;;;;;;;;;;5023154;28;88298;-80
2022/02/22 14:48:25;;;;;;;2.15;0.57;;;;;;;;;;5024553;28;89976;-81
2022/02/22 14:50:54;;;;;;;0.40;0.40;;;;;;;;;;5023831;28;86641;-80
2022/02/22 14:53:21;;;;;;;0.98;0.60;;;;;;;;;;5023198;28;86787;-80
2022/02/22 14:55:49;;;;;;;17.48;2.63;;;;;;;;;;5006533;28;89445;-80
2022/02/22 14:58:20;;;;;;;2.72;0.70;;;;;;;;;;5024447;28;89364;-80